sensor_id;sensor_type;location;lat;lon;timestamp;temperature;humidity
38784;DHT22;24531;45.502;12.238;2022-12-11T00:00:04;12.10;99.90
38784;DHT22;24531;45.502;12.238;2022-12-11T00:02:30;12.10;99.90
38784;DHT22;24531;45.502;12.238;2022-12-11T00:04:56;12.10;99.90
38784;DHT22;24531;45.502;12.238;2022-12-11T00:07:21;12.10;99.90
38784;DHT22;24531;45.502;12.238;2022-12-11T00:09:47;12.10;99.90
38784;DHT22;24531;45.502;12.238;2022-12-11T00:12:13;12.10;99.90
38784;DHT22;24531;45.502;12.238;2022-12-11T00:14:39;12.10;99.90
38784;DHT22;24531;45.502;12.238;2022-12-11T00:17:04;11.90;99.90
38784;DHT22;24531;45.502;12.238;2022-12-11T00:19:30;11.90;99.90
38784;DHT22;24531;45.502;12.238;2022-12-11T00:21:56;11.90;99.90
38784;DHT22;24531;45.502;12.238;2022-12-11T00:24:21;11.90;99.90
38784;DHT22;24531;45.502;12.238;2022-12-11T00:26:47;12.00;99.90
38784;DHT22;24531;45.502;12.238;2022-12-11T00:29:13;12.00;99.90
38784;DHT22;24531;45.502;12.238;2022-12-11T00:31:40;12.10;99.90
38784;DHT22;24531;45.502;12.238;2022-12-11T00:34:06;12.00;99.90
38784;DHT22;24531;45.502;12.238;2022-12-11T00:36:32;12.00;99.90
38784;DHT22;24531;45.502;12.238;2022-12-11T00:38:58;12.00;99.90
38784;DHT22;24531;45.502;12.238;2022-12-11T00:41:25;12.00;99.90
38784;DHT22;24531;45.502;12.238;2022-12-11T00:43:51;11.90;99.90
38784;DHT22;24531;45.502;12.238;2022-12-11T00:46:16;11.90;99.90
38784;DHT22;24531;45.502;12.238;2022-12-11T00:48:42;11.90;99.90
38784;DHT22;24531;45.502;12.238;2022-12-11T00:51:07;11.90;99.90
38784;DHT22;24531;45.502;12.238;2022-12-11T00:53:33;11.90;99.90
38784;DHT22;24531;45.502;12.238;2022-12-11T00:55:59;11.90;99.90
38784;DHT22;24531;45.502;12.238;2022-12-11T00:58:24;11.80;99.90
38784;DHT22;24531;45.502;12.238;2022-12-11T01:00:51;11.90;99.90
38784;DHT22;24531;45.502;12.238;2022-12-11T01:03:17;11.90;99.90
38784;DHT22;24531;45.502;12.238;2022-12-11T01:05:51;11.90;99.90
38784;DHT22;24531;45.502;12.238;2022-12-11T01:08:17;11.80;99.90
38784;DHT22;24531;45.502;12.238;2022-12-11T01:10:42;11.90;99.90
38784;DHT22;24531;45.502;12.238;2022-12-11T01:13:10;11.90;99.90
38784;DHT22;24531;45.502;12.238;2022-12-11T01:15:41;11.90;99.90
38784;DHT22;24531;45.502;12.238;2022-12-11T01:18:08;11.80;99.90
38784;DHT22;24531;45.502;12.238;2022-12-11T01:20:35;11.80;99.90
38784;DHT22;24531;45.502;12.238;2022-12-11T01:23:01;11.80;99.90
38784;DHT22;24531;45.502;12.238;2022-12-11T01:25:27;11.80;99.90
38784;DHT22;24531;45.502;12.238;2022-12-11T01:27:54;11.90;99.90
38784;DHT22;24531;45.502;12.238;2022-12-11T01:30:22;11.90;99.90
38784;DHT22;24531;45.502;12.238;2022-12-11T01:32:48;11.90;99.90
38784;DHT22;24531;45.502;12.238;2022-12-11T01:35:14;11.90;99.90
38784;DHT22;24531;45.502;12.238;2022-12-11T01:37:41;12.00;99.90
38784;DHT22;24531;45.502;12.238;2022-12-11T01:40:07;12.00;99.90
38784;DHT22;24531;45.502;12.238;2022-12-11T01:42:34;12.00;99.90
38784;DHT22;24531;45.502;12.238;2022-12-11T01:48:28;12.00;99.90
38784;DHT22;24531;45.502;12.238;2022-12-11T01:50:57;12.00;99.90
38784;DHT22;24531;45.502;12.238;2022-12-11T01:53:30;12.00;99.90
38784;DHT22;24531;45.502;12.238;2022-12-11T01:55:58;12.00;99.90
38784;DHT22;24531;45.502;12.238;2022-12-11T01:58:28;12.00;99.90
38784;DHT22;24531;45.502;12.238;2022-12-11T02:00:56;12.00;99.90
38784;DHT22;24531;45.502;12.238;2022-12-11T02:03:22;12.00;99.90
38784;DHT22;24531;45.502;12.238;2022-12-11T02:05:48;12.00;99.90
38784;DHT22;24531;45.502;12.238;2022-12-11T02:08:14;12.00;99.90
38784;DHT22;24531;45.502;12.238;2022-12-11T02:10:50;12.00;99.90
38784;DHT22;24531;45.502;12.238;2022-12-11T02:13:36;12.00;99.90
38784;DHT22;24531;45.502;12.238;2022-12-11T02:16:49;12.00;99.90
38784;DHT22;24531;45.502;12.238;2022-12-11T02:22:07;12.00;99.90
38784;DHT22;24531;45.502;12.238;2022-12-11T02:25:03;11.90;99.90
38784;DHT22;24531;45.502;12.238;2022-12-11T02:27:49;11.90;99.90
38784;DHT22;24531;45.502;12.238;2022-12-11T02:30:21;11.90;99.90
38784;DHT22;24531;45.502;12.238;2022-12-11T02:32:55;12.00;99.90
38784;DHT22;24531;45.502;12.238;2022-12-11T02:35:29;12.00;99.90
38784;DHT22;24531;45.502;12.238;2022-12-11T02:38:00;11.90;99.90
38784;DHT22;24531;45.502;12.238;2022-12-11T02:40:29;11.90;99.90
38784;DHT22;24531;45.502;12.238;2022-12-11T02:43:00;11.90;99.90
38784;DHT22;24531;45.502;12.238;2022-12-11T02:45:27;11.90;99.90
38784;DHT22;24531;45.502;12.238;2022-12-11T02:47:55;11.90;99.90
38784;DHT22;24531;45.502;12.238;2022-12-11T02:50:22;11.90;99.90
38784;DHT22;24531;45.502;12.238;2022-12-11T02:52:50;11.90;99.90
38784;DHT22;24531;45.502;12.238;2022-12-11T02:55:17;11.90;99.90
38784;DHT22;24531;45.502;12.238;2022-12-11T03:00:10;11.80;99.90
38784;DHT22;24531;45.502;12.238;2022-12-11T03:02:37;11.60;99.90
38784;DHT22;24531;45.502;12.238;2022-12-11T03:05:03;11.60;99.90
38784;DHT22;24531;45.502;12.238;2022-12-11T03:07:33;11.60;99.90
38784;DHT22;24531;45.502;12.238;2022-12-11T03:09:59;11.70;99.90
38784;DHT22;24531;45.502;12.238;2022-12-11T03:12:30;11.60;99.90
38784;DHT22;24531;45.502;12.238;2022-12-11T03:14:59;11.70;99.90
38784;DHT22;24531;45.502;12.238;2022-12-11T03:17:51;11.60;99.90
38784;DHT22;24531;45.502;12.238;2022-12-11T03:20:44;11.70;99.90
38784;DHT22;24531;45.502;12.238;2022-12-11T03:23:21;11.70;99.90
38784;DHT22;24531;45.502;12.238;2022-12-11T03:25:57;11.70;99.90
38784;DHT22;24531;45.502;12.238;2022-12-11T03:28:47;11.70;99.90
38784;DHT22;24531;45.502;12.238;2022-12-11T03:31:41;11.70;99.90
38784;DHT22;24531;45.502;12.238;2022-12-11T03:34:12;11.70;99.90
38784;DHT22;24531;45.502;12.238;2022-12-11T03:36:41;11.60;99.90
38784;DHT22;24531;45.502;12.238;2022-12-11T03:39:21;11.70;99.90
38784;DHT22;24531;45.502;12.238;2022-12-11T03:41:50;11.70;99.90
38784;DHT22;24531;45.502;12.238;2022-12-11T03:44:18;11.70;99.90
38784;DHT22;24531;45.502;12.238;2022-12-11T03:46:45;11.70;99.90
38784;DHT22;24531;45.502;12.238;2022-12-11T03:49:16;11.70;99.90
38784;DHT22;24531;45.502;12.238;2022-12-11T03:51:45;11.70;99.90
38784;DHT22;24531;45.502;12.238;2022-12-11T03:54:13;11.70;99.90
38784;DHT22;24531;45.502;12.238;2022-12-11T03:56:40;11.70;99.90
38784;DHT22;24531;45.502;12.238;2022-12-11T03:59:07;11.60;99.90
38784;DHT22;24531;45.502;12.238;2022-12-11T04:01:33;11.60;99.90
38784;DHT22;24531;45.502;12.238;2022-12-11T04:03:59;11.60;99.90
38784;DHT22;24531;45.502;12.238;2022-12-11T04:06:24;11.60;99.90
38784;DHT22;24531;45.502;12.238;2022-12-11T04:08:50;11.60;99.90
38784;DHT22;24531;45.502;12.238;2022-12-11T04:11:15;11.60;99.90
38784;DHT22;24531;45.502;12.238;2022-12-11T04:14:10;11.60;99.90
38784;DHT22;24531;45.502;12.238;2022-12-11T04:16:55;11.60;99.90
38784;DHT22;24531;45.502;12.238;2022-12-11T04:19:22;11.70;99.90
38784;DHT22;24531;45.502;12.238;2022-12-11T04:22:12;11.70;99.90
38784;DHT22;24531;45.502;12.238;2022-12-11T04:24:57;11.70;99.90
38784;DHT22;24531;45.502;12.238;2022-12-11T04:27:23;11.70;99.90
38784;DHT22;24531;45.502;12.238;2022-12-11T04:30:10;11.70;99.90
38784;DHT22;24531;45.502;12.238;2022-12-11T04:32:36;11.70;99.90
38784;DHT22;24531;45.502;12.238;2022-12-11T04:35:03;11.70;99.90
38784;DHT22;24531;45.502;12.238;2022-12-11T04:37:28;11.70;99.90
38784;DHT22;24531;45.502;12.238;2022-12-11T04:39:54;11.70;99.90
38784;DHT22;24531;45.502;12.238;2022-12-11T04:42:20;11.70;99.90
38784;DHT22;24531;45.502;12.238;2022-12-11T04:44:45;11.70;99.90
38784;DHT22;24531;45.502;12.238;2022-12-11T04:47:11;11.60;99.90
38784;DHT22;24531;45.502;12.238;2022-12-11T04:49:37;11.60;99.90
38784;DHT22;24531;45.502;12.238;2022-12-11T04:52:03;11.50;99.90
38784;DHT22;24531;45.502;12.238;2022-12-11T04:54:32;11.50;99.90
38784;DHT22;24531;45.502;12.238;2022-12-11T04:56:57;11.50;99.90
38784;DHT22;24531;45.502;12.238;2022-12-11T04:59:23;11.50;99.90
38784;DHT22;24531;45.502;12.238;2022-12-11T05:01:49;11.50;99.90
38784;DHT22;24531;45.502;12.238;2022-12-11T05:04:14;11.40;99.90
38784;DHT22;24531;45.502;12.238;2022-12-11T05:06:40;11.40;99.90
38784;DHT22;24531;45.502;12.238;2022-12-11T05:09:10;11.40;99.90
38784;DHT22;24531;45.502;12.238;2022-12-11T05:11:36;11.40;99.90
38784;DHT22;24531;45.502;12.238;2022-12-11T05:14:02;11.30;99.90
38784;DHT22;24531;45.502;12.238;2022-12-11T05:16:28;11.30;99.90
38784;DHT22;24531;45.502;12.238;2022-12-11T05:18:53;11.30;99.90
38784;DHT22;24531;45.502;12.238;2022-12-11T05:21:19;11.30;99.90
38784;DHT22;24531;45.502;12.238;2022-12-11T05:23:45;11.20;99.90
38784;DHT22;24531;45.502;12.238;2022-12-11T05:26:13;11.20;99.90
38784;DHT22;24531;45.502;12.238;2022-12-11T05:28:39;11.20;99.90
38784;DHT22;24531;45.502;12.238;2022-12-11T05:31:08;11.20;99.90
38784;DHT22;24531;45.502;12.238;2022-12-11T05:33:36;11.20;99.90
38784;DHT22;24531;45.502;12.238;2022-12-11T05:36:01;11.20;99.90
38784;DHT22;24531;45.502;12.238;2022-12-11T05:38:27;11.20;99.90
38784;DHT22;24531;45.502;12.238;2022-12-11T05:40:56;11.20;99.90
38784;DHT22;24531;45.502;12.238;2022-12-11T05:43:23;11.20;99.90
38784;DHT22;24531;45.502;12.238;2022-12-11T05:45:48;11.20;99.90
38784;DHT22;24531;45.502;12.238;2022-12-11T05:48:14;11.20;99.90
38784;DHT22;24531;45.502;12.238;2022-12-11T05:50:40;11.10;99.90
38784;DHT22;24531;45.502;12.238;2022-12-11T05:53:05;11.10;99.90
38784;DHT22;24531;45.502;12.238;2022-12-11T05:55:34;11.10;99.90
38784;DHT22;24531;45.502;12.238;2022-12-11T05:58:00;11.10;99.90
38784;DHT22;24531;45.502;12.238;2022-12-11T06:00:25;11.10;99.90
38784;DHT22;24531;45.502;12.238;2022-12-11T06:02:51;11.10;99.90
38784;DHT22;24531;45.502;12.238;2022-12-11T06:05:16;11.10;99.90
38784;DHT22;24531;45.502;12.238;2022-12-11T06:07:42;11.10;99.90
38784;DHT22;24531;45.502;12.238;2022-12-11T06:10:08;11.10;99.90
38784;DHT22;24531;45.502;12.238;2022-12-11T06:12:34;11.10;99.90
38784;DHT22;24531;45.502;12.238;2022-12-11T06:15:00;11.10;99.90
38784;DHT22;24531;45.502;12.238;2022-12-11T06:17:26;11.10;99.90
38784;DHT22;24531;45.502;12.238;2022-12-11T06:19:51;11.00;99.90
38784;DHT22;24531;45.502;12.238;2022-12-11T06:22:17;11.00;99.90
38784;DHT22;24531;45.502;12.238;2022-12-11T06:24:42;11.00;99.90
38784;DHT22;24531;45.502;12.238;2022-12-11T06:27:08;11.00;99.90
38784;DHT22;24531;45.502;12.238;2022-12-11T06:29:34;11.00;99.90
38784;DHT22;24531;45.502;12.238;2022-12-11T06:32:00;11.00;99.90
38784;DHT22;24531;45.502;12.238;2022-12-11T06:34:25;10.90;99.90
38784;DHT22;24531;45.502;12.238;2022-12-11T06:36:51;10.90;99.90
38784;DHT22;24531;45.502;12.238;2022-12-11T06:39:16;10.90;99.90
38784;DHT22;24531;45.502;12.238;2022-12-11T06:41:42;10.80;99.90
38784;DHT22;24531;45.502;12.238;2022-12-11T06:44:08;10.70;99.90
38784;DHT22;24531;45.502;12.238;2022-12-11T06:46:33;10.70;99.90
38784;DHT22;24531;45.502;12.238;2022-12-11T06:49:00;10.70;99.90
38784;DHT22;24531;45.502;12.238;2022-12-11T06:51:25;10.60;99.90
38784;DHT22;24531;45.502;12.238;2022-12-11T06:53:53;10.60;99.90
38784;DHT22;24531;45.502;12.238;2022-12-11T06:56:19;10.50;99.90
38784;DHT22;24531;45.502;12.238;2022-12-11T06:58:45;10.40;99.90
38784;DHT22;24531;45.502;12.238;2022-12-11T07:01:33;10.40;99.90
38784;DHT22;24531;45.502;12.238;2022-12-11T07:04:28;10.30;99.90
38784;DHT22;24531;45.502;12.238;2022-12-11T07:07:16;10.30;99.90
38784;DHT22;24531;45.502;12.238;2022-12-11T07:09:44;10.40;99.90
38784;DHT22;24531;45.502;12.238;2022-12-11T07:12:09;10.30;99.90
38784;DHT22;24531;45.502;12.238;2022-12-11T07:14:35;10.30;99.90
38784;DHT22;24531;45.502;12.238;2022-12-11T07:17:01;10.30;99.90
38784;DHT22;24531;45.502;12.238;2022-12-11T07:19:26;10.20;99.90
38784;DHT22;24531;45.502;12.238;2022-12-11T07:21:52;10.10;99.90
38784;DHT22;24531;45.502;12.238;2022-12-11T07:24:18;10.00;99.90
38784;DHT22;24531;45.502;12.238;2022-12-11T07:26:44;10.00;99.90
38784;DHT22;24531;45.502;12.238;2022-12-11T07:29:10;9.90;99.90
38784;DHT22;24531;45.502;12.238;2022-12-11T07:31:36;9.90;99.90
38784;DHT22;24531;45.502;12.238;2022-12-11T07:34:05;9.90;99.90
38784;DHT22;24531;45.502;12.238;2022-12-11T07:36:31;9.90;99.90
38784;DHT22;24531;45.502;12.238;2022-12-11T07:38:58;9.90;99.90
38784;DHT22;24531;45.502;12.238;2022-12-11T07:41:24;9.80;99.90
38784;DHT22;24531;45.502;12.238;2022-12-11T07:43:52;9.90;99.90
38784;DHT22;24531;45.502;12.238;2022-12-11T07:46:23;9.80;99.90
38784;DHT22;24531;45.502;12.238;2022-12-11T07:48:50;9.80;99.90
38784;DHT22;24531;45.502;12.238;2022-12-11T07:51:18;9.80;99.90
38784;DHT22;24531;45.502;12.238;2022-12-11T07:53:46;9.80;99.90
38784;DHT22;24531;45.502;12.238;2022-12-11T07:56:13;9.80;99.90
38784;DHT22;24531;45.502;12.238;2022-12-11T07:58:39;9.80;99.90
38784;DHT22;24531;45.502;12.238;2022-12-11T08:01:09;9.70;99.90
38784;DHT22;24531;45.502;12.238;2022-12-11T08:03:34;9.70;99.90
38784;DHT22;24531;45.502;12.238;2022-12-11T08:06:00;9.70;99.90
38784;DHT22;24531;45.502;12.238;2022-12-11T08:08:26;9.70;99.90
38784;DHT22;24531;45.502;12.238;2022-12-11T08:10:51;9.70;99.90
38784;DHT22;24531;45.502;12.238;2022-12-11T08:13:17;9.70;99.90
38784;DHT22;24531;45.502;12.238;2022-12-11T08:15:42;9.70;99.90
38784;DHT22;24531;45.502;12.238;2022-12-11T08:18:08;9.70;99.90
38784;DHT22;24531;45.502;12.238;2022-12-11T08:20:36;9.60;99.90
38784;DHT22;24531;45.502;12.238;2022-12-11T08:23:01;9.60;99.90
38784;DHT22;24531;45.502;12.238;2022-12-11T08:25:27;9.50;99.90
38784;DHT22;24531;45.502;12.238;2022-12-11T08:27:52;9.50;99.90
38784;DHT22;24531;45.502;12.238;2022-12-11T08:30:18;9.40;99.90
38784;DHT22;24531;45.502;12.238;2022-12-11T08:32:44;9.40;99.90
38784;DHT22;24531;45.502;12.238;2022-12-11T08:35:09;9.50;99.90
38784;DHT22;24531;45.502;12.238;2022-12-11T08:37:35;9.40;99.90
38784;DHT22;24531;45.502;12.238;2022-12-11T08:40:00;9.50;99.90
38784;DHT22;24531;45.502;12.238;2022-12-11T08:42:26;9.50;99.90
38784;DHT22;24531;45.502;12.238;2022-12-11T08:44:52;9.50;99.90
38784;DHT22;24531;45.502;12.238;2022-12-11T08:47:17;9.50;99.90
38784;DHT22;24531;45.502;12.238;2022-12-11T08:49:43;9.50;99.90
38784;DHT22;24531;45.502;12.238;2022-12-11T08:52:09;9.50;99.90
38784;DHT22;24531;45.502;12.238;2022-12-11T08:54:36;9.50;99.90
38784;DHT22;24531;45.502;12.238;2022-12-11T08:57:03;9.50;99.90
38784;DHT22;24531;45.502;12.238;2022-12-11T08:59:28;9.60;99.90
38784;DHT22;24531;45.502;12.238;2022-12-11T09:01:54;9.50;99.90
38784;DHT22;24531;45.502;12.238;2022-12-11T09:04:21;9.60;99.90
38784;DHT22;24531;45.502;12.238;2022-12-11T09:06:47;9.60;99.90
38784;DHT22;24531;45.502;12.238;2022-12-11T09:09:13;9.60;99.90
38784;DHT22;24531;45.502;12.238;2022-12-11T09:11:40;9.60;99.90
38784;DHT22;24531;45.502;12.238;2022-12-11T09:14:06;9.50;99.90
38784;DHT22;24531;45.502;12.238;2022-12-11T09:16:32;9.50;99.90
38784;DHT22;24531;45.502;12.238;2022-12-11T09:18:59;9.50;99.90
38784;DHT22;24531;45.502;12.238;2022-12-11T09:21:28;9.50;99.90
38784;DHT22;24531;45.502;12.238;2022-12-11T09:23:56;9.50;99.90
38784;DHT22;24531;45.502;12.238;2022-12-11T09:26:23;9.40;99.90
38784;DHT22;24531;45.502;12.238;2022-12-11T09:28:49;9.40;99.90
38784;DHT22;24531;45.502;12.238;2022-12-11T09:31:26;9.40;99.90
38784;DHT22;24531;45.502;12.238;2022-12-11T09:33:55;9.40;99.90
38784;DHT22;24531;45.502;12.238;2022-12-11T09:36:21;9.40;99.90
38784;DHT22;24531;45.502;12.238;2022-12-11T09:38:46;9.40;99.90
38784;DHT22;24531;45.502;12.238;2022-12-11T09:46:41;9.30;99.90
38784;DHT22;24531;45.502;12.238;2022-12-11T09:49:21;9.30;99.90
38784;DHT22;24531;45.502;12.238;2022-12-11T09:52:11;9.30;99.90
38784;DHT22;24531;45.502;12.238;2022-12-11T09:54:58;9.30;99.90
38784;DHT22;24531;45.502;12.238;2022-12-11T09:57:31;9.10;99.90
38784;DHT22;24531;45.502;12.238;2022-12-11T10:00:20;9.20;99.90
38784;DHT22;24531;45.502;12.238;2022-12-11T10:08:25;9.20;99.90
38784;DHT22;24531;45.502;12.238;2022-12-11T10:16:44;9.10;99.90
38784;DHT22;24531;45.502;12.238;2022-12-11T10:19:24;8.90;99.90
38784;DHT22;24531;45.502;12.238;2022-12-11T10:21:52;8.90;99.90
38784;DHT22;24531;45.502;12.238;2022-12-11T10:24:33;8.80;99.90
38784;DHT22;24531;45.502;12.238;2022-12-11T10:27:11;8.70;99.90
38784;DHT22;24531;45.502;12.238;2022-12-11T10:29:38;8.70;99.90
38784;DHT22;24531;45.502;12.238;2022-12-11T10:32:04;8.80;99.90
38784;DHT22;24531;45.502;12.238;2022-12-11T10:34:38;8.70;99.90
38784;DHT22;24531;45.502;12.238;2022-12-11T10:37:04;8.70;99.90
38784;DHT22;24531;45.502;12.238;2022-12-11T10:39:30;8.70;99.90
38784;DHT22;24531;45.502;12.238;2022-12-11T10:41:56;8.80;99.90
38784;DHT22;24531;45.502;12.238;2022-12-11T10:44:25;8.80;99.90
38784;DHT22;24531;45.502;12.238;2022-12-11T10:47:05;8.70;99.90
38784;DHT22;24531;45.502;12.238;2022-12-11T10:49:34;8.70;99.90
38784;DHT22;24531;45.502;12.238;2022-12-11T10:52:01;8.70;99.90
38784;DHT22;24531;45.502;12.238;2022-12-11T10:54:37;8.80;99.90
38784;DHT22;24531;45.502;12.238;2022-12-11T10:57:06;8.80;99.90
38784;DHT22;24531;45.502;12.238;2022-12-11T10:59:37;8.90;99.90
38784;DHT22;24531;45.502;12.238;2022-12-11T11:02:05;9.00;99.90
38784;DHT22;24531;45.502;12.238;2022-12-11T11:04:36;9.00;99.90
38784;DHT22;24531;45.502;12.238;2022-12-11T11:09:36;8.90;99.90
38784;DHT22;24531;45.502;12.238;2022-12-11T11:12:01;8.90;99.90
38784;DHT22;24531;45.502;12.238;2022-12-11T11:14:27;8.90;99.90
38784;DHT22;24531;45.502;12.238;2022-12-11T11:16:56;8.90;99.90
38784;DHT22;24531;45.502;12.238;2022-12-11T11:19:35;8.90;99.90
38784;DHT22;24531;45.502;12.238;2022-12-11T11:22:05;8.90;99.90
38784;DHT22;24531;45.502;12.238;2022-12-11T11:25:01;8.80;99.90
38784;DHT22;24531;45.502;12.238;2022-12-11T11:27:35;8.80;99.90
38784;DHT22;24531;45.502;12.238;2022-12-11T11:32:45;8.60;99.90
38784;DHT22;24531;45.502;12.238;2022-12-11T11:37:38;8.50;99.90
38784;DHT22;24531;45.502;12.238;2022-12-11T11:40:26;8.40;99.90
38784;DHT22;24531;45.502;12.238;2022-12-11T11:50:56;8.50;99.90
38784;DHT22;24531;45.502;12.238;2022-12-11T11:53:31;8.50;99.90
38784;DHT22;24531;45.502;12.238;2022-12-11T11:59:13;8.40;99.90
38784;DHT22;24531;45.502;12.238;2022-12-11T12:01:41;8.40;99.90
38784;DHT22;24531;45.502;12.238;2022-12-11T12:04:08;8.50;99.90
38784;DHT22;24531;45.502;12.238;2022-12-11T12:17:44;8.60;99.90
38784;DHT22;24531;45.502;12.238;2022-12-11T12:29:02;8.60;99.90
38784;DHT22;24531;45.502;12.238;2022-12-11T12:37:44;8.50;99.90
38784;DHT22;24531;45.502;12.238;2022-12-11T12:40:17;8.40;99.90
38784;DHT22;24531;45.502;12.238;2022-12-11T12:48:16;8.20;99.90
38784;DHT22;24531;45.502;12.238;2022-12-11T12:50:46;8.20;99.90
38784;DHT22;24531;45.502;12.238;2022-12-11T12:53:27;8.30;99.90
38784;DHT22;24531;45.502;12.238;2022-12-11T12:55:55;8.30;99.90
38784;DHT22;24531;45.502;12.238;2022-12-11T13:00:53;8.30;99.90
38784;DHT22;24531;45.502;12.238;2022-12-11T13:03:21;8.30;99.90
38784;DHT22;24531;45.502;12.238;2022-12-11T13:06:07;8.30;99.90
38784;DHT22;24531;45.502;12.238;2022-12-11T13:08:46;8.30;99.90
38784;DHT22;24531;45.502;12.238;2022-12-11T13:11:15;8.30;99.90
38784;DHT22;24531;45.502;12.238;2022-12-11T13:16:34;8.20;99.90
38784;DHT22;24531;45.502;12.238;2022-12-11T13:19:01;8.30;99.90
38784;DHT22;24531;45.502;12.238;2022-12-11T13:21:33;8.20;99.90
38784;DHT22;24531;45.502;12.238;2022-12-11T13:26:45;8.20;99.90
38784;DHT22;24531;45.502;12.238;2022-12-11T13:29:46;8.30;99.90
38784;DHT22;24531;45.502;12.238;2022-12-11T13:34:44;8.30;99.90
38784;DHT22;24531;45.502;12.238;2022-12-11T13:37:40;8.30;99.90
38784;DHT22;24531;45.502;12.238;2022-12-11T13:40:25;8.20;99.90
38784;DHT22;24531;45.502;12.238;2022-12-11T13:42:54;8.20;99.90
38784;DHT22;24531;45.502;12.238;2022-12-11T13:45:28;8.20;99.90
38784;DHT22;24531;45.502;12.238;2022-12-11T13:47:57;8.20;99.90
38784;DHT22;24531;45.502;12.238;2022-12-11T13:50:27;8.20;99.90
38784;DHT22;24531;45.502;12.238;2022-12-11T13:52:58;8.20;99.90
38784;DHT22;24531;45.502;12.238;2022-12-11T13:55:27;8.10;99.90
38784;DHT22;24531;45.502;12.238;2022-12-11T13:57:53;8.10;99.90
38784;DHT22;24531;45.502;12.238;2022-12-11T14:00:24;8.20;99.90
38784;DHT22;24531;45.502;12.238;2022-12-11T14:02:52;8.20;99.90
38784;DHT22;24531;45.502;12.238;2022-12-11T14:05:19;8.20;99.90
38784;DHT22;24531;45.502;12.238;2022-12-11T14:07:51;8.20;99.90
38784;DHT22;24531;45.502;12.238;2022-12-11T14:10:21;8.20;99.90
38784;DHT22;24531;45.502;12.238;2022-12-11T14:13:21;8.20;99.90
38784;DHT22;24531;45.502;12.238;2022-12-11T14:15:48;8.20;99.90
38784;DHT22;24531;45.502;12.238;2022-12-11T14:18:18;8.20;99.90
38784;DHT22;24531;45.502;12.238;2022-12-11T14:20:46;8.20;99.90
38784;DHT22;24531;45.502;12.238;2022-12-11T14:23:31;8.20;99.90
38784;DHT22;24531;45.502;12.238;2022-12-11T14:26:02;8.20;99.90
38784;DHT22;24531;45.502;12.238;2022-12-11T14:28:35;8.20;99.90
38784;DHT22;24531;45.502;12.238;2022-12-11T14:31:02;8.20;99.90
38784;DHT22;24531;45.502;12.238;2022-12-11T14:33:32;8.20;99.90
38784;DHT22;24531;45.502;12.238;2022-12-11T14:35:59;8.20;99.90
38784;DHT22;24531;45.502;12.238;2022-12-11T14:38:36;8.20;99.90
38784;DHT22;24531;45.502;12.238;2022-12-11T14:41:10;8.20;99.90
38784;DHT22;24531;45.502;12.238;2022-12-11T14:43:42;8.20;99.90
38784;DHT22;24531;45.502;12.238;2022-12-11T14:46:21;8.30;99.90
38784;DHT22;24531;45.502;12.238;2022-12-11T14:48:55;8.20;99.90
38784;DHT22;24531;45.502;12.238;2022-12-11T14:51:23;8.30;99.90
38784;DHT22;24531;45.502;12.238;2022-12-11T14:53:51;8.30;99.90
38784;DHT22;24531;45.502;12.238;2022-12-11T14:56:24;8.30;99.90
38784;DHT22;24531;45.502;12.238;2022-12-11T14:59:01;8.30;99.90
38784;DHT22;24531;45.502;12.238;2022-12-11T15:01:31;8.30;99.90
38784;DHT22;24531;45.502;12.238;2022-12-11T15:04:21;8.40;99.90
38784;DHT22;24531;45.502;12.238;2022-12-11T15:06:49;8.30;99.90
38784;DHT22;24531;45.502;12.238;2022-12-11T15:09:23;8.40;99.90
38784;DHT22;24531;45.502;12.238;2022-12-11T15:11:50;8.40;99.90
38784;DHT22;24531;45.502;12.238;2022-12-11T15:14:19;8.40;99.90
38784;DHT22;24531;45.502;12.238;2022-12-11T15:16:47;8.40;99.90
38784;DHT22;24531;45.502;12.238;2022-12-11T15:19:55;8.40;99.90
38784;DHT22;24531;45.502;12.238;2022-12-11T15:22:26;8.40;99.90
38784;DHT22;24531;45.502;12.238;2022-12-11T15:24:54;8.50;99.90
38784;DHT22;24531;45.502;12.238;2022-12-11T15:27:35;8.50;99.90
38784;DHT22;24531;45.502;12.238;2022-12-11T15:35:36;8.40;99.90
38784;DHT22;24531;45.502;12.238;2022-12-11T15:38:03;8.40;99.90
38784;DHT22;24531;45.502;12.238;2022-12-11T15:40:28;8.50;99.90
38784;DHT22;24531;45.502;12.238;2022-12-11T15:42:55;8.50;99.90
38784;DHT22;24531;45.502;12.238;2022-12-11T15:45:23;8.60;99.90
38784;DHT22;24531;45.502;12.238;2022-12-11T15:47:50;8.50;99.90
38784;DHT22;24531;45.502;12.238;2022-12-11T15:50:27;8.50;99.90
38784;DHT22;24531;45.502;12.238;2022-12-11T15:52:54;8.50;99.90
38784;DHT22;24531;45.502;12.238;2022-12-11T15:55:21;8.50;99.90
38784;DHT22;24531;45.502;12.238;2022-12-11T15:57:54;8.50;99.90
38784;DHT22;24531;45.502;12.238;2022-12-11T16:00:20;8.40;99.90
38784;DHT22;24531;45.502;12.238;2022-12-11T16:02:46;8.50;99.90
38784;DHT22;24531;45.502;12.238;2022-12-11T16:05:12;8.50;99.90
38784;DHT22;24531;45.502;12.238;2022-12-11T16:07:39;8.50;99.90
38784;DHT22;24531;45.502;12.238;2022-12-11T16:10:05;8.50;99.90
38784;DHT22;24531;45.502;12.238;2022-12-11T16:12:31;8.60;99.90
38784;DHT22;24531;45.502;12.238;2022-12-11T16:14:57;8.50;99.90
38784;DHT22;24531;45.502;12.238;2022-12-11T16:17:23;8.50;99.90
38784;DHT22;24531;45.502;12.238;2022-12-11T16:19:49;8.60;99.90
38784;DHT22;24531;45.502;12.238;2022-12-11T16:22:15;8.50;99.90
38784;DHT22;24531;45.502;12.238;2022-12-11T16:24:41;8.60;99.90
38784;DHT22;24531;45.502;12.238;2022-12-11T16:27:07;8.60;99.90
38784;DHT22;24531;45.502;12.238;2022-12-11T16:29:40;8.70;99.90
38784;DHT22;24531;45.502;12.238;2022-12-11T16:32:07;8.70;99.90
38784;DHT22;24531;45.502;12.238;2022-12-11T16:34:34;8.60;99.90
38784;DHT22;24531;45.502;12.238;2022-12-11T16:37:00;8.60;99.90
38784;DHT22;24531;45.502;12.238;2022-12-11T16:39:26;8.60;99.90
38784;DHT22;24531;45.502;12.238;2022-12-11T16:41:52;8.60;99.90
38784;DHT22;24531;45.502;12.238;2022-12-11T16:44:23;8.60;99.90
38784;DHT22;24531;45.502;12.238;2022-12-11T16:46:49;8.60;99.90
38784;DHT22;24531;45.502;12.238;2022-12-11T16:49:15;8.60;99.90
38784;DHT22;24531;45.502;12.238;2022-12-11T16:51:41;8.60;99.90
38784;DHT22;24531;45.502;12.238;2022-12-11T16:54:07;8.50;99.90
38784;DHT22;24531;45.502;12.238;2022-12-11T16:56:33;8.50;99.90
38784;DHT22;24531;45.502;12.238;2022-12-11T16:59:00;8.60;99.90
38784;DHT22;24531;45.502;12.238;2022-12-11T17:01:26;8.60;99.90
38784;DHT22;24531;45.502;12.238;2022-12-11T17:03:52;8.60;99.90
38784;DHT22;24531;45.502;12.238;2022-12-11T17:06:19;8.50;99.90
38784;DHT22;24531;45.502;12.238;2022-12-11T17:08:45;8.60;99.90
38784;DHT22;24531;45.502;12.238;2022-12-11T17:11:18;8.60;99.90